sensor_id;sensor_type;location;lat;lon;timestamp;P1;durP1;ratioP1;P2;durP2;ratioP2
74309;SDS011;62722;51.142;17.052;2022-11-13T00:00:40;32.35;;;14.43;;
74309;SDS011;62722;51.142;17.052;2022-11-13T00:03:21;33.22;;;16.05;;
74309;SDS011;62722;51.142;17.052;2022-11-13T00:05:57;33.92;;;15.30;;
74309;SDS011;62722;51.142;17.052;2022-11-13T00:08:24;32.38;;;15.25;;
74309;SDS011;62722;51.142;17.052;2022-11-13T00:10:58;32.22;;;14.57;;
74309;SDS011;62722;51.142;17.052;2022-11-13T00:13:26;28.35;;;14.57;;
74309;SDS011;62722;51.142;17.052;2022-11-13T00:15:58;30.98;;;14.80;;
74309;SDS011;62722;51.142;17.052;2022-11-13T00:18:27;34.72;;;16.17;;
74309;SDS011;62722;51.142;17.052;2022-11-13T00:20:55;35.53;;;15.75;;
74309;SDS011;62722;51.142;17.052;2022-11-13T00:23:23;31.88;;;15.30;;
74309;SDS011;62722;51.142;17.052;2022-11-13T00:25:50;34.08;;;15.60;;
74309;SDS011;62722;51.142;17.052;2022-11-13T00:28:17;33.97;;;16.13;;
74309;SDS011;62722;51.142;17.052;2022-11-13T00:30:44;30.95;;;15.95;;
74309;SDS011;62722;51.142;17.052;2022-11-13T00:33:13;35.33;;;16.85;;
74309;SDS011;62722;51.142;17.052;2022-11-13T00:35:40;32.75;;;14.82;;
74309;SDS011;62722;51.142;17.052;2022-11-13T00:38:07;32.17;;;13.82;;
74309;SDS011;62722;51.142;17.052;2022-11-13T00:40:35;32.13;;;14.85;;
74309;SDS011;62722;51.142;17.052;2022-11-13T00:43:02;32.78;;;15.02;;
74309;SDS011;62722;51.142;17.052;2022-11-13T00:45:29;28.83;;;14.30;;
74309;SDS011;62722;51.142;17.052;2022-11-13T00:47:56;34.00;;;14.88;;
74309;SDS011;62722;51.142;17.052;2022-11-13T00:50:25;29.52;;;13.07;;
74309;SDS011;62722;51.142;17.052;2022-11-13T00:52:53;31.27;;;13.38;;
74309;SDS011;62722;51.142;17.052;2022-11-13T00:55:20;26.77;;;12.15;;
74309;SDS011;62722;51.142;17.052;2022-11-13T00:57:47;29.20;;;11.75;;
74309;SDS011;62722;51.142;17.052;2022-11-13T01:00:15;28.80;;;12.15;;
74309;SDS011;62722;51.142;17.052;2022-11-13T01:02:42;28.05;;;12.02;;
74309;SDS011;62722;51.142;17.052;2022-11-13T01:05:09;27.45;;;11.50;;
74309;SDS011;62722;51.142;17.052;2022-11-13T01:07:38;24.60;;;10.13;;
74309;SDS011;62722;51.142;17.052;2022-11-13T01:10:05;23.65;;;9.93;;
74309;SDS011;62722;51.142;17.052;2022-11-13T01:12:33;21.40;;;9.20;;
74309;SDS011;62722;51.142;17.052;2022-11-13T01:15:01;24.63;;;9.30;;
74309;SDS011;62722;51.142;17.052;2022-11-13T01:17:28;26.63;;;9.75;;
74309;SDS011;62722;51.142;17.052;2022-11-13T01:19:55;23.13;;;10.02;;
74309;SDS011;62722;51.142;17.052;2022-11-13T01:22:23;21.88;;;9.15;;
74309;SDS011;62722;51.142;17.052;2022-11-13T01:24:51;21.50;;;9.07;;
74309;SDS011;62722;51.142;17.052;2022-11-13T01:27:18;19.38;;;9.05;;
74309;SDS011;62722;51.142;17.052;2022-11-13T01:29:46;22.08;;;8.98;;
74309;SDS011;62722;51.142;17.052;2022-11-13T01:32:13;25.52;;;9.75;;
74309;SDS011;62722;51.142;17.052;2022-11-13T01:34:40;20.95;;;8.80;;
74309;SDS011;62722;51.142;17.052;2022-11-13T01:37:07;20.60;;;8.38;;
74309;SDS011;62722;51.142;17.052;2022-11-13T01:39:34;22.70;;;8.60;;
74309;SDS011;62722;51.142;17.052;2022-11-13T01:42:03;18.42;;;7.82;;
74309;SDS011;62722;51.142;17.052;2022-11-13T01:44:44;19.15;;;8.48;;
74309;SDS011;62722;51.142;17.052;2022-11-13T01:47:14;18.88;;;8.57;;
74309;SDS011;62722;51.142;17.052;2022-11-13T01:49:42;18.52;;;8.15;;
74309;SDS011;62722;51.142;17.052;2022-11-13T01:52:12;20.88;;;8.60;;
74309;SDS011;62722;51.142;17.052;2022-11-13T01:54:44;20.42;;;8.75;;
74309;SDS011;62722;51.142;17.052;2022-11-13T01:57:16;20.23;;;8.50;;
74309;SDS011;62722;51.142;17.052;2022-11-13T01:59:46;18.83;;;8.00;;
74309;SDS011;62722;51.142;17.052;2022-11-13T02:02:16;21.95;;;9.07;;
74309;SDS011;62722;51.142;17.052;2022-11-13T02:04:43;19.73;;;8.45;;
74309;SDS011;62722;51.142;17.052;2022-11-13T02:07:11;22.38;;;9.00;;
74309;SDS011;62722;51.142;17.052;2022-11-13T02:09:41;22.23;;;8.85;;
74309;SDS011;62722;51.142;17.052;2022-11-13T02:12:11;18.70;;;8.13;;
74309;SDS011;62722;51.142;17.052;2022-11-13T02:14:43;23.75;;;9.13;;
74309;SDS011;62722;51.142;17.052;2022-11-13T02:17:13;24.85;;;8.32;;
74309;SDS011;62722;51.142;17.052;2022-11-13T02:19:44;22.85;;;8.77;;
74309;SDS011;62722;51.142;17.052;2022-11-13T02:22:15;22.95;;;9.15;;
74309;SDS011;62722;51.142;17.052;2022-11-13T02:24:51;26.33;;;10.15;;
74309;SDS011;62722;51.142;17.052;2022-11-13T02:27:20;26.83;;;10.55;;
74309;SDS011;62722;51.142;17.052;2022-11-13T02:29:51;24.80;;;10.13;;
74309;SDS011;62722;51.142;17.052;2022-11-13T02:32:19;23.35;;;10.35;;
74309;SDS011;62722;51.142;17.052;2022-11-13T02:34:46;27.02;;;10.32;;
74309;SDS011;62722;51.142;17.052;2022-11-13T02:37:13;28.15;;;11.52;;
74309;SDS011;62722;51.142;17.052;2022-11-13T02:39:40;23.92;;;10.30;;
74309;SDS011;62722;51.142;17.052;2022-11-13T02:42:09;24.60;;;10.82;;
74309;SDS011;62722;51.142;17.052;2022-11-13T02:44:36;26.35;;;11.73;;
74309;SDS011;62722;51.142;17.052;2022-11-13T02:47:03;29.38;;;11.50;;
74309;SDS011;62722;51.142;17.052;2022-11-13T02:49:30;24.50;;;10.30;;
74309;SDS011;62722;51.142;17.052;2022-11-13T02:51:57;30.17;;;12.20;;
74309;SDS011;62722;51.142;17.052;2022-11-13T02:54:24;28.55;;;12.02;;
74309;SDS011;62722;51.142;17.052;2022-11-13T02:56:51;33.35;;;15.20;;
74309;SDS011;62722;51.142;17.052;2022-11-13T02:59:20;28.08;;;11.35;;
74309;SDS011;62722;51.142;17.052;2022-11-13T03:01:47;25.20;;;12.20;;
74309;SDS011;62722;51.142;17.052;2022-11-13T03:04:14;47.38;;;19.88;;
74309;SDS011;62722;51.142;17.052;2022-11-13T03:06:41;58.17;;;24.25;;
74309;SDS011;62722;51.142;17.052;2022-11-13T03:09:08;39.05;;;16.95;;
74309;SDS011;62722;51.142;17.052;2022-11-13T03:11:36;26.15;;;10.82;;
74309;SDS011;62722;51.142;17.052;2022-11-13T03:14:03;26.85;;;11.55;;
74309;SDS011;62722;51.142;17.052;2022-11-13T03:16:31;30.75;;;12.45;;
74309;SDS011;62722;51.142;17.052;2022-11-13T03:19:00;25.13;;;10.35;;
74309;SDS011;62722;51.142;17.052;2022-11-13T03:21:27;26.67;;;11.43;;
74309;SDS011;62722;51.142;17.052;2022-11-13T03:23:56;28.38;;;12.18;;
74309;SDS011;62722;51.142;17.052;2022-11-13T03:26:23;26.77;;;11.77;;
74309;SDS011;62722;51.142;17.052;2022-11-13T03:28:52;26.88;;;11.68;;
74309;SDS011;62722;51.142;17.052;2022-11-13T03:31:20;26.67;;;10.88;;
74309;SDS011;62722;51.142;17.052;2022-11-13T03:33:50;27.15;;;11.48;;
74309;SDS011;62722;51.142;17.052;2022-11-13T03:36:18;23.88;;;10.88;;
74309;SDS011;62722;51.142;17.052;2022-11-13T03:38:45;28.05;;;11.52;;
74309;SDS011;62722;51.142;17.052;2022-11-13T03:41:12;28.83;;;11.88;;
74309;SDS011;62722;51.142;17.052;2022-11-13T03:43:40;31.17;;;13.48;;
74309;SDS011;62722;51.142;17.052;2022-11-13T03:46:07;32.90;;;12.77;;
74309;SDS011;62722;51.142;17.052;2022-11-13T03:48:34;30.65;;;12.90;;
74309;SDS011;62722;51.142;17.052;2022-11-13T03:51:03;29.27;;;13.25;;
74309;SDS011;62722;51.142;17.052;2022-11-13T03:53:30;30.63;;;12.75;;
74309;SDS011;62722;51.142;17.052;2022-11-13T03:55:57;36.28;;;13.73;;
74309;SDS011;62722;51.142;17.052;2022-11-13T03:58:25;32.97;;;13.45;;
74309;SDS011;62722;51.142;17.052;2022-11-13T04:00:52;31.23;;;13.38;;
74309;SDS011;62722;51.142;17.052;2022-11-13T04:03:20;29.75;;;12.50;;
74309;SDS011;62722;51.142;17.052;2022-11-13T04:05:48;29.40;;;13.25;;
74309;SDS011;62722;51.142;17.052;2022-11-13T04:08:17;31.42;;;13.00;;
74309;SDS011;62722;51.142;17.052;2022-11-13T04:10:45;33.10;;;13.40;;
74309;SDS011;62722;51.142;17.052;2022-11-13T04:13:12;30.42;;;13.10;;
74309;SDS011;62722;51.142;17.052;2022-11-13T04:15:39;30.13;;;12.63;;
74309;SDS011;62722;51.142;17.052;2022-11-13T04:18:06;33.28;;;13.73;;
74309;SDS011;62722;51.142;17.052;2022-11-13T04:20:33;31.45;;;13.27;;
74309;SDS011;62722;51.142;17.052;2022-11-13T04:23:01;32.83;;;13.10;;
74309;SDS011;62722;51.142;17.052;2022-11-13T04:25:33;33.80;;;13.48;;
74309;SDS011;62722;51.142;17.052;2022-11-13T04:28:00;29.15;;;12.43;;
74309;SDS011;62722;51.142;17.052;2022-11-13T04:30:27;33.08;;;13.48;;
74309;SDS011;62722;51.142;17.052;2022-11-13T04:32:55;31.55;;;12.82;;
74309;SDS011;62722;51.142;17.052;2022-11-13T04:35:22;30.15;;;11.75;;
74309;SDS011;62722;51.142;17.052;2022-11-13T04:37:49;33.05;;;13.48;;
74309;SDS011;62722;51.142;17.052;2022-11-13T04:40:16;30.30;;;12.07;;
74309;SDS011;62722;51.142;17.052;2022-11-13T04:42:45;31.27;;;12.98;;
74309;SDS011;62722;51.142;17.052;2022-11-13T04:45:15;35.00;;;13.88;;
74309;SDS011;62722;51.142;17.052;2022-11-13T04:47:42;35.17;;;14.38;;
74309;SDS011;62722;51.142;17.052;2022-11-13T04:50:09;33.50;;;13.35;;
74309;SDS011;62722;51.142;17.052;2022-11-13T04:52:37;33.25;;;12.55;;
74309;SDS011;62722;51.142;17.052;2022-11-13T04:55:05;33.13;;;12.80;;
74309;SDS011;62722;51.142;17.052;2022-11-13T04:57:33;34.22;;;12.95;;
74309;SDS011;62722;51.142;17.052;2022-11-13T05:00:02;30.73;;;13.02;;
74309;SDS011;62722;51.142;17.052;2022-11-13T05:02:30;28.63;;;12.50;;
74309;SDS011;62722;51.142;17.052;2022-11-13T05:04:58;32.38;;;12.65;;
74309;SDS011;62722;51.142;17.052;2022-11-13T05:07:25;31.48;;;12.68;;
74309;SDS011;62722;51.142;17.052;2022-11-13T05:09:53;31.52;;;12.98;;
74309;SDS011;62722;51.142;17.052;2022-11-13T05:12:21;32.55;;;12.90;;
74309;SDS011;62722;51.142;17.052;2022-11-13T05:14:48;32.30;;;13.60;;
74309;SDS011;62722;51.142;17.052;2022-11-13T05:17:16;31.83;;;12.35;;
74309;SDS011;62722;51.142;17.052;2022-11-13T05:19:44;30.35;;;13.30;;
74309;SDS011;62722;51.142;17.052;2022-11-13T05:22:11;27.58;;;12.00;;
74309;SDS011;62722;51.142;17.052;2022-11-13T05:24:38;32.47;;;12.88;;
74309;SDS011;62722;51.142;17.052;2022-11-13T05:27:05;28.20;;;12.20;;
74309;SDS011;62722;51.142;17.052;2022-11-13T05:29:32;31.70;;;13.75;;
74309;SDS011;62722;51.142;17.052;2022-11-13T05:31:59;33.72;;;12.43;;
74309;SDS011;62722;51.142;17.052;2022-11-13T05:34:28;30.35;;;12.93;;
74309;SDS011;62722;51.142;17.052;2022-11-13T05:36:55;29.02;;;13.23;;
74309;SDS011;62722;51.142;17.052;2022-11-13T05:39:22;36.53;;;13.57;;
74309;SDS011;62722;51.142;17.052;2022-11-13T05:41:49;32.60;;;13.32;;
74309;SDS011;62722;51.142;17.052;2022-11-13T05:44:16;32.13;;;12.85;;
74309;SDS011;62722;51.142;17.052;2022-11-13T05:46:43;29.35;;;12.27;;
74309;SDS011;62722;51.142;17.052;2022-11-13T05:49:11;31.17;;;12.98;;
74309;SDS011;62722;51.142;17.052;2022-11-13T05:51:39;30.83;;;12.50;;
74309;SDS011;62722;51.142;17.052;2022-11-13T05:54:07;31.13;;;12.32;;
74309;SDS011;62722;51.142;17.052;2022-11-13T05:56:34;32.97;;;12.98;;
74309;SDS011;62722;51.142;17.052;2022-11-13T05:59:02;31.90;;;12.00;;
74309;SDS011;62722;51.142;17.052;2022-11-13T06:01:31;26.75;;;12.10;;
74309;SDS011;62722;51.142;17.052;2022-11-13T06:03:59;29.60;;;11.48;;
74309;SDS011;62722;51.142;17.052;2022-11-13T06:06:27;28.88;;;11.50;;
74309;SDS011;62722;51.142;17.052;2022-11-13T06:08:58;30.45;;;12.55;;
74309;SDS011;62722;51.142;17.052;2022-11-13T06:11:27;27.33;;;12.32;;
74309;SDS011;62722;51.142;17.052;2022-11-13T06:13:55;30.45;;;11.18;;
74309;SDS011;62722;51.142;17.052;2022-11-13T06:16:24;27.27;;;12.45;;
74309;SDS011;62722;51.142;17.052;2022-11-13T06:18:53;30.92;;;12.55;;
74309;SDS011;62722;51.142;17.052;2022-11-13T06:21:23;27.75;;;12.40;;
74309;SDS011;62722;51.142;17.052;2022-11-13T06:23:53;27.42;;;12.40;;
74309;SDS011;62722;51.142;17.052;2022-11-13T06:26:22;29.88;;;11.27;;
74309;SDS011;62722;51.142;17.052;2022-11-13T06:28:50;33.25;;;13.88;;
74309;SDS011;62722;51.142;17.052;2022-11-13T06:31:19;31.48;;;13.65;;
74309;SDS011;62722;51.142;17.052;2022-11-13T06:33:47;31.15;;;12.50;;
74309;SDS011;62722;51.142;17.052;2022-11-13T06:36:16;29.15;;;13.13;;
74309;SDS011;62722;51.142;17.052;2022-11-13T06:38:45;26.30;;;12.27;;
74309;SDS011;62722;51.142;17.052;2022-11-13T06:41:14;31.70;;;13.60;;
74309;SDS011;62722;51.142;17.052;2022-11-13T06:43:43;31.38;;;13.38;;
74309;SDS011;62722;51.142;17.052;2022-11-13T06:46:12;34.08;;;13.18;;
74309;SDS011;62722;51.142;17.052;2022-11-13T06:48:41;32.95;;;13.45;;
74309;SDS011;62722;51.142;17.052;2022-11-13T06:51:08;32.10;;;12.85;;
74309;SDS011;62722;51.142;17.052;2022-11-13T06:53:39;31.13;;;12.80;;
74309;SDS011;62722;51.142;17.052;2022-11-13T06:56:07;32.65;;;13.98;;
74309;SDS011;62722;51.142;17.052;2022-11-13T06:58:34;34.65;;;14.40;;
74309;SDS011;62722;51.142;17.052;2022-11-13T07:01:06;37.08;;;14.93;;
74309;SDS011;62722;51.142;17.052;2022-11-13T07:03:34;40.58;;;16.05;;
74309;SDS011;62722;51.142;17.052;2022-11-13T07:06:01;35.03;;;15.32;;
74309;SDS011;62722;51.142;17.052;2022-11-13T07:08:29;44.88;;;16.65;;
74309;SDS011;62722;51.142;17.052;2022-11-13T07:10:57;38.95;;;16.50;;
74309;SDS011;62722;51.142;17.052;2022-11-13T07:13:25;36.75;;;15.88;;
74309;SDS011;62722;51.142;17.052;2022-11-13T07:15:53;38.30;;;16.85;;
74309;SDS011;62722;51.142;17.052;2022-11-13T07:18:21;35.15;;;15.25;;
74309;SDS011;62722;51.142;17.052;2022-11-13T07:20:48;40.42;;;17.42;;
74309;SDS011;62722;51.142;17.052;2022-11-13T07:23:16;36.92;;;16.70;;
74309;SDS011;62722;51.142;17.052;2022-11-13T07:25:43;41.03;;;17.83;;
74309;SDS011;62722;51.142;17.052;2022-11-13T07:28:10;40.45;;;17.38;;
74309;SDS011;62722;51.142;17.052;2022-11-13T07:30:37;40.63;;;16.75;;
74309;SDS011;62722;51.142;17.052;2022-11-13T07:33:04;37.90;;;16.40;;
74309;SDS011;62722;51.142;17.052;2022-11-13T07:35:33;40.95;;;16.95;;
74309;SDS011;62722;51.142;17.052;2022-11-13T07:38:00;42.70;;;17.17;;
74309;SDS011;62722;51.142;17.052;2022-11-13T07:40:27;37.40;;;16.70;;
74309;SDS011;62722;51.142;17.052;2022-11-13T07:42:56;38.83;;;18.35;;
74309;SDS011;62722;51.142;17.052;2022-11-13T07:45:25;37.78;;;15.15;;
74309;SDS011;62722;51.142;17.052;2022-11-13T07:47:56;35.38;;;15.90;;
74309;SDS011;62722;51.142;17.052;2022-11-13T07:50:24;35.95;;;15.85;;
74309;SDS011;62722;51.142;17.052;2022-11-13T07:52:55;42.40;;;16.30;;
74309;SDS011;62722;51.142;17.052;2022-11-13T07:55:23;36.55;;;15.75;;
74309;SDS011;62722;51.142;17.052;2022-11-13T07:57:50;43.80;;;18.33;;
74309;SDS011;62722;51.142;17.052;2022-11-13T08:00:20;36.45;;;15.50;;
74309;SDS011;62722;51.142;17.052;2022-11-13T08:02:47;38.95;;;15.50;;
74309;SDS011;62722;51.142;17.052;2022-11-13T08:05:15;38.35;;;15.63;;
74309;SDS011;62722;51.142;17.052;2022-11-13T08:07:44;36.97;;;16.00;;
74309;SDS011;62722;51.142;17.052;2022-11-13T08:10:14;33.80;;;14.73;;
74309;SDS011;62722;51.142;17.052;2022-11-13T08:12:42;35.90;;;15.80;;
74309;SDS011;62722;51.142;17.052;2022-11-13T08:15:09;33.72;;;15.27;;
74309;SDS011;62722;51.142;17.052;2022-11-13T08:17:36;39.10;;;15.93;;
74309;SDS011;62722;51.142;17.052;2022-11-13T08:20:05;39.40;;;17.95;;
74309;SDS011;62722;51.142;17.052;2022-11-13T08:22:33;40.25;;;16.65;;
74309;SDS011;62722;51.142;17.052;2022-11-13T08:25:00;38.15;;;16.15;;
74309;SDS011;62722;51.142;17.052;2022-11-13T08:27:29;33.58;;;15.90;;
74309;SDS011;62722;51.142;17.052;2022-11-13T08:29:57;33.97;;;15.00;;
74309;SDS011;62722;51.142;17.052;2022-11-13T08:32:24;35.10;;;15.70;;
74309;SDS011;62722;51.142;17.052;2022-11-13T08:34:51;39.50;;;17.25;;
74309;SDS011;62722;51.142;17.052;2022-11-13T08:37:18;37.88;;;16.83;;
74309;SDS011;62722;51.142;17.052;2022-11-13T08:39:45;38.83;;;16.80;;
74309;SDS011;62722;51.142;17.052;2022-11-13T08:42:12;41.08;;;17.17;;
74309;SDS011;62722;51.142;17.052;2022-11-13T08:44:41;39.60;;;17.10;;
74309;SDS011;62722;51.142;17.052;2022-11-13T08:47:08;39.92;;;15.57;;
74309;SDS011;62722;51.142;17.052;2022-11-13T08:49:35;37.13;;;17.10;;
74309;SDS011;62722;51.142;17.052;2022-11-13T08:52:03;37.13;;;15.57;;
74309;SDS011;62722;51.142;17.052;2022-11-13T08:54:31;41.70;;;17.70;;
74309;SDS011;62722;51.142;17.052;2022-11-13T08:56:58;41.15;;;17.73;;
74309;SDS011;62722;51.142;17.052;2022-11-13T08:59:26;48.85;;;22.75;;
74309;SDS011;62722;51.142;17.052;2022-11-13T09:01:54;45.13;;;18.40;;
74309;SDS011;62722;51.142;17.052;2022-11-13T09:04:24;42.03;;;16.65;;
74309;SDS011;62722;51.142;17.052;2022-11-13T09:06:51;43.75;;;17.13;;
74309;SDS011;62722;51.142;17.052;2022-11-13T09:09:19;41.25;;;16.48;;
74309;SDS011;62722;51.142;17.052;2022-11-13T09:11:47;39.83;;;18.73;;
74309;SDS011;62722;51.142;17.052;2022-11-13T09:14:14;45.75;;;18.08;;
74309;SDS011;62722;51.142;17.052;2022-11-13T09:16:41;39.95;;;17.10;;
74309;SDS011;62722;51.142;17.052;2022-11-13T09:19:10;41.38;;;17.38;;
74309;SDS011;62722;51.142;17.052;2022-11-13T09:21:37;40.40;;;15.98;;
74309;SDS011;62722;51.142;17.052;2022-11-13T09:24:05;37.42;;;15.82;;
74309;SDS011;62722;51.142;17.052;2022-11-13T09:26:33;43.15;;;17.25;;
74309;SDS011;62722;51.142;17.052;2022-11-13T09:29:00;34.20;;;15.38;;
74309;SDS011;62722;51.142;17.052;2022-11-13T09:31:27;39.40;;;16.40;;
74309;SDS011;62722;51.142;17.052;2022-11-13T09:33:55;43.40;;;19.45;;
74309;SDS011;62722;51.142;17.052;2022-11-13T09:36:23;41.53;;;17.02;;
74309;SDS011;62722;51.142;17.052;2022-11-13T09:38:50;36.17;;;16.50;;
74309;SDS011;62722;51.142;17.052;2022-11-13T09:41:18;39.15;;;16.98;;
74309;SDS011;62722;51.142;17.052;2022-11-13T09:43:50;41.28;;;18.08;;
74309;SDS011;62722;51.142;17.052;2022-11-13T09:46:19;45.92;;;19.52;;
74309;SDS011;62722;51.142;17.052;2022-11-13T09:48:55;40.97;;;18.35;;
74309;SDS011;62722;51.142;17.052;2022-11-13T09:51:30;39.72;;;17.38;;
74309;SDS011;62722;51.142;17.052;2022-11-13T09:54:05;41.15;;;18.55;;
74309;SDS011;62722;51.142;17.052;2022-11-13T09:56:33;43.95;;;17.63;;
74309;SDS011;62722;51.142;17.052;2022-11-13T09:59:05;38.55;;;17.23;;
74309;SDS011;62722;51.142;17.052;2022-11-13T10:01:46;40.72;;;19.10;;
74309;SDS011;62722;51.142;17.052;2022-11-13T10:04:18;44.30;;;19.30;;
74309;SDS011;62722;51.142;17.052;2022-11-13T10:07:02;42.80;;;18.27;;
74309;SDS011;62722;51.142;17.052;2022-11-13T10:09:40;41.15;;;19.77;;
74309;SDS011;62722;51.142;17.052;2022-11-13T10:12:19;44.45;;;19.00;;
74309;SDS011;62722;51.142;17.052;2022-11-13T10:14:48;43.78;;;20.70;;
74309;SDS011;62722;51.142;17.052;2022-11-13T10:17:20;43.92;;;19.85;;
74309;SDS011;62722;51.142;17.052;2022-11-13T10:19:53;46.05;;;20.63;;
74309;SDS011;62722;51.142;17.052;2022-11-13T10:22:26;45.10;;;19.40;;
74309;SDS011;62722;51.142;17.052;2022-11-13T10:24:59;46.22;;;21.35;;
74309;SDS011;62722;51.142;17.052;2022-11-13T10:27:30;49.28;;;20.98;;
74309;SDS011;62722;51.142;17.052;2022-11-13T10:29:57;47.15;;;20.23;;
74309;SDS011;62722;51.142;17.052;2022-11-13T10:32:25;48.40;;;21.75;;
74309;SDS011;62722;51.142;17.052;2022-11-13T10:34:58;50.72;;;21.10;;
74309;SDS011;62722;51.142;17.052;2022-11-13T10:37:38;50.20;;;21.08;;
74309;SDS011;62722;51.142;17.052;2022-11-13T10:40:22;52.97;;;23.02;;
74309;SDS011;62722;51.142;17.052;2022-11-13T10:42:50;57.15;;;23.27;;
74309;SDS011;62722;51.142;17.052;2022-11-13T10:45:18;58.45;;;24.40;;
74309;SDS011;62722;51.142;17.052;2022-11-13T10:47:47;55.50;;;23.17;;
74309;SDS011;62722;51.142;17.052;2022-11-13T10:50:18;59.55;;;22.25;;
74309;SDS011;62722;51.142;17.052;2022-11-13T10:52:52;54.63;;;21.83;;
74309;SDS011;62722;51.142;17.052;2022-11-13T10:55:21;61.47;;;25.08;;
74309;SDS011;62722;51.142;17.052;2022-11-13T10:57:53;55.10;;;22.15;;
74309;SDS011;62722;51.142;17.052;2022-11-13T11:00:22;51.47;;;21.80;;
74309;SDS011;62722;51.142;17.052;2022-11-13T11:02:52;55.28;;;22.67;;
74309;SDS011;62722;51.142;17.052;2022-11-13T11:05:20;50.38;;;21.13;;
74309;SDS011;62722;51.142;17.052;2022-11-13T11:07:50;52.20;;;21.55;;
74309;SDS011;62722;51.142;17.052;2022-11-13T11:10:24;64.18;;;25.75;;
74309;SDS011;62722;51.142;17.052;2022-11-13T11:12:56;52.58;;;21.92;;
74309;SDS011;62722;51.142;17.052;2022-11-13T11:15:31;49.53;;;22.38;;
74309;SDS011;62722;51.142;17.052;2022-11-13T11:18:08;51.35;;;20.58;;
74309;SDS011;62722;51.142;17.052;2022-11-13T11:20:47;45.70;;;20.23;;
74309;SDS011;62722;51.142;17.052;2022-11-13T11:23:22;50.38;;;20.25;;
74309;SDS011;62722;51.142;17.052;2022-11-13T11:25:57;44.58;;;18.65;;
74309;SDS011;62722;51.142;17.052;2022-11-13T11:28:30;46.15;;;18.45;;
74309;SDS011;62722;51.142;17.052;2022-11-13T11:31:04;50.40;;;18.98;;
74309;SDS011;62722;51.142;17.052;2022-11-13T11:33:41;46.83;;;20.23;;
74309;SDS011;62722;51.142;17.052;2022-11-13T11:36:21;44.60;;;20.20;;
74309;SDS011;62722;51.142;17.052;2022-11-13T11:38:58;52.15;;;20.08;;
74309;SDS011;62722;51.142;17.052;2022-11-13T11:41:41;45.67;;;18.67;;
74309;SDS011;62722;51.142;17.052;2022-11-13T11:44:24;52.53;;;22.02;;
74309;SDS011;62722;51.142;17.052;2022-11-13T11:46:56;53.33;;;20.90;;
74309;SDS011;62722;51.142;17.052;2022-11-13T11:49:24;52.20;;;23.15;;
74309;SDS011;62722;51.142;17.052;2022-11-13T11:51:54;45.63;;;19.85;;
74309;SDS011;62722;51.142;17.052;2022-11-13T11:54:34;49.22;;;20.40;;
74309;SDS011;62722;51.142;17.052;2022-11-13T11:57:11;46.85;;;18.60;;
74309;SDS011;62722;51.142;17.052;2022-11-13T11:59:50;48.65;;;20.05;;
74309;SDS011;62722;51.142;17.052;2022-11-13T12:05:28;48.70;;;20.60;;
74309;SDS011;62722;51.142;17.052;2022-11-13T12:08:01;45.17;;;18.83;;
74309;SDS011;62722;51.142;17.052;2022-11-13T12:10:42;47.08;;;20.35;;
74309;SDS011;62722;51.142;17.052;2022-11-13T12:13:21;44.78;;;18.50;;
74309;SDS011;62722;51.142;17.052;2022-11-13T12:16:03;52.38;;;19.90;;
74309;SDS011;62722;51.142;17.052;2022-11-13T12:18:41;43.65;;;19.27;;
74309;SDS011;62722;51.142;17.052;2022-11-13T12:21:23;45.30;;;19.75;;
74309;SDS011;62722;51.142;17.052;2022-11-13T12:24:06;46.05;;;20.73;;
74309;SDS011;62722;51.142;17.052;2022-11-13T12:26:48;50.50;;;21.33;;
74309;SDS011;62722;51.142;17.052;2022-11-13T12:29:28;45.17;;;16.48;;
74309;SDS011;62722;51.142;17.052;2022-11-13T12:32:07;40.58;;;17.95;;
74309;SDS011;62722;51.142;17.052;2022-11-13T12:34:45;46.17;;;18.13;;
74309;SDS011;62722;51.142;17.052;2022-11-13T12:37:19;45.33;;;19.00;;
74309;SDS011;62722;51.142;17.052;2022-11-13T12:39:54;41.83;;;17.42;;
74309;SDS011;62722;51.142;17.052;2022-11-13T12:42:27;46.33;;;18.48;;
74309;SDS011;62722;51.142;17.052;2022-11-13T12:44:59;51.03;;;20.30;;
74309;SDS011;62722;51.142;17.052;2022-11-13T12:47:34;48.25;;;19.83;;
74309;SDS011;62722;51.142;17.052;2022-11-13T12:50:03;46.67;;;19.08;;
74309;SDS011;62722;51.142;17.052;2022-11-13T12:52:32;49.53;;;18.52;;
74309;SDS011;62722;51.142;17.052;2022-11-13T12:55:03;53.05;;;20.50;;
74309;SDS011;62722;51.142;17.052;2022-11-13T12:57:34;47.38;;;19.23;;
74309;SDS011;62722;51.142;17.052;2022-11-13T13:00:19;49.97;;;19.45;;
74309;SDS011;62722;51.142;17.052;2022-11-13T13:02:51;51.17;;;19.30;;
74309;SDS011;62722;51.142;17.052;2022-11-13T13:05:28;47.50;;;19.00;;
74309;SDS011;62722;51.142;17.052;2022-11-13T13:08:24;50.22;;;19.20;;
74309;SDS011;62722;51.142;17.052;2022-11-13T13:11:04;53.25;;;22.10;;
74309;SDS011;62722;51.142;17.052;2022-11-13T13:13:42;53.22;;;22.13;;
74309;SDS011;62722;51.142;17.052;2022-11-13T13:16:20;55.70;;;23.27;;
74309;SDS011;62722;51.142;17.052;2022-11-13T13:18:51;50.78;;;21.25;;
74309;SDS011;62722;51.142;17.052;2022-11-13T13:21:19;56.88;;;22.30;;
74309;SDS011;62722;51.142;17.052;2022-11-13T13:23:47;56.45;;;22.05;;
74309;SDS011;62722;51.142;17.052;2022-11-13T13:26:17;55.67;;;21.45;;
74309;SDS011;62722;51.142;17.052;2022-11-13T13:28:50;55.92;;;20.77;;
74309;SDS011;62722;51.142;17.052;2022-11-13T13:31:22;56.80;;;21.20;;
74309;SDS011;62722;51.142;17.052;2022-11-13T13:34:01;54.80;;;21.48;;
74309;SDS011;62722;51.142;17.052;2022-11-13T13:36:49;55.42;;;22.10;;
74309;SDS011;62722;51.142;17.052;2022-11-13T13:39:27;55.40;;;22.10;;
74309;SDS011;62722;51.142;17.052;2022-11-13T13:42:08;54.83;;;22.17;;
74309;SDS011;62722;51.142;17.052;2022-11-13T13:44:50;50.70;;;19.77;;
74309;SDS011;62722;51.142;17.052;2022-11-13T13:47:32;47.20;;;18.85;;
74309;SDS011;62722;51.142;17.052;2022-11-13T13:50:04;56.72;;;20.83;;
74309;SDS011;62722;51.142;17.052;2022-11-13T13:52:33;51.97;;;19.63;;
74309;SDS011;62722;51.142;17.052;2022-11-13T13:55:03;58.42;;;21.25;;
74309;SDS011;62722;51.142;17.052;2022-11-13T13:57:33;55.42;;;23.35;;
74309;SDS011;62722;51.142;17.052;2022-11-13T14:00:10;58.97;;;21.13;;
74309;SDS011;62722;51.142;17.052;2022-11-13T14:02:43;55.70;;;22.75;;
74309;SDS011;62722;51.142;17.052;2022-11-13T14:05:16;55.55;;;21.08;;
74309;SDS011;62722;51.142;17.052;2022-11-13T14:07:51;53.65;;;20.38;;
74309;SDS011;62722;51.142;17.052;2022-11-13T14:10:19;50.50;;;18.80;;
74309;SDS011;62722;51.142;17.052;2022-11-13T14:12:48;54.38;;;21.10;;
74309;SDS011;62722;51.142;17.052;2022-11-13T14:15:24;50.63;;;19.90;;
74309;SDS011;62722;51.142;17.052;2022-11-13T14:18:03;50.72;;;20.40;;
74309;SDS011;62722;51.142;17.052;2022-11-13T14:20:36;49.42;;;20.10;;
74309;SDS011;62722;51.142;17.052;2022-11-13T14:23:11;51.67;;;19.45;;
74309;SDS011;62722;51.142;17.052;2022-11-13T14:25:41;57.72;;;20.65;;
74309;SDS011;62722;51.142;17.052;2022-11-13T14:28:13;55.17;;;20.38;;
74309;SDS011;62722;51.142;17.052;2022-11-13T14:30:43;51.70;;;20.33;;